Time;durP1;ratioP1;P1;durP2;ratioP2;P2;SDS_P1;SDS_P2;PMS_P1;PMS_P2;Temp;Humidity;BMP_temperature;BMP_pressure;BME280_temperature;BME280_humidity;BME280_pressure;Samples;Min_cycle;Max_cycle;Signal;HPM_P1;HPM_P2
2022/01/23 00:00:00;;;;;;;;;;;;;;;2.31;82.96;98057.75;5048527;28;20351;-75
2022/01/23 00:02:27;;;;;;;;;;;;;;;2.24;83.49;98041.91;5069337;28;20342;-75
2022/01/23 00:04:53;;;;;;;;;;;;;;;2.22;83.42;98054.16;5067273;28;19957;-76
2022/01/23 00:07:19;;;;;;;;;;;;;;;2.22;83.27;98056.75;5068190;28;20340;-74
2022/01/23 00:09:45;;;;;;;;;;;;;;;2.23;83.33;98058.41;5062245;28;20414;-75
2022/01/23 00:12:15;;;;;;;;;;;;;;;2.25;83.47;98059.09;5072311;28;19967;-75
2022/01/23 00:17:32;;;;;;;;;;;;;;;2.31;83.73;98062.94;5055222;28;19961;-75
2022/01/23 00:19:59;;;;;;;;;;;;;;;2.35;83.57;98059.16;5069993;28;19959;-75
2022/01/23 00:22:32;;;;;;;;;;;;;;;2.36;83.51;98053.84;5069086;28;19953;-75
2022/01/23 00:30:29;;;;;;;;;;;;;;;2.38;83.50;98038.22;5064295;28;19958;-79
2022/01/23 00:32:59;;;;;;;;;;;;;;;2.38;83.37;98036.44;5059505;28;20439;-78
2022/01/23 00:35:26;;;;;;;;;;;;;;;2.39;83.59;98039.84;5060331;28;20442;-78
2022/01/23 00:37:52;;;;;;;;;;;;;;;2.38;83.56;98028.66;5065193;28;19966;-77
2022/01/23 00:40:18;;;;;;;;;;;;;;;2.39;83.56;98039.84;5071139;28;19948;-79
2022/01/23 00:42:45;;;;;;;;;;;;;;;2.39;83.84;98045.84;5062804;28;19954;-78
2022/01/23 00:45:32;;;;;;;;;;;;;;;2.39;83.38;98042.41;5065669;28;19952;-78
2022/01/23 00:48:07;;;;;;;;;;;;;;;2.36;83.24;98046.09;5063385;28;19971;-78
2022/01/23 00:50:34;;;;;;;;;;;;;;;2.35;83.12;98043.63;5069692;28;20419;-78
2022/01/23 00:53:01;;;;;;;;;;;;;;;2.34;82.94;98045.41;5060289;28;19976;-76
2022/01/23 00:55:27;;;;;;;;;;;;;;;2.35;83.02;98041.03;5058120;28;19969;-75
2022/01/23 00:57:53;;;;;;;;;;;;;;;2.35;83.49;98036.69;5070144;28;20038;-76
2022/01/23 01:00:19;;;;;;;;;;;;;;;2.38;83.39;98044.19;5051648;28;19971;-76
2022/01/23 01:02:45;;;;;;;;;;;;;;;2.40;83.71;98044.06;5062513;28;19951;-79
2022/01/23 01:05:11;;;;;;;;;;;;;;;2.40;83.42;98049.25;5063696;28;20445;-76
2022/01/23 01:07:37;;;;;;;;;;;;;;;2.41;83.20;98043.13;5066540;28;20044;-76
2022/01/23 01:10:08;;;;;;;;;;;;;;;2.42;83.17;98045.59;5068800;28;19957;-77
2022/01/23 01:12:41;;;;;;;;;;;;;;;2.42;82.77;98049.94;5063900;28;19965;-76
2022/01/23 01:30:12;;;;;;;;;;;;;;;2.29;83.10;98037.19;5060739;28;19960;-77
2022/01/23 01:31:39;;;;;;;;;;;;;;;2.24;83.49;98037.56;5061946;28;19956;-76
2022/01/23 01:34:21;;;;;;;;;;;;;;;2.23;83.43;98038.50;5067011;28;19951;-76
2022/01/23 01:36:49;;;;;;;;;;;;;;;2.24;83.17;98036.75;5064550;28;19968;-77
2022/01/23 01:39:17;;;;;;;;;;;;;;;2.23;83.18;98041.09;5067210;28;19971;-77
2022/01/23 01:41:44;;;;;;;;;;;;;;;2.23;83.23;98046.28;5059378;28;19948;-75
2022/01/23 01:44:10;;;;;;;;;;;;;;;2.22;83.16;98046.41;5059088;28;19949;-74
2022/01/23 01:46:36;;;;;;;;;;;;;;;2.22;83.12;98049.00;5066646;28;20343;-74
2022/01/23 01:49:02;;;;;;;;;;;;;;;2.21;83.00;98043.00;5064510;28;19959;-75
2022/01/23 01:51:31;;;;;;;;;;;;;;;2.20;83.14;98043.94;5055815;28;20001;-75
2022/01/23 01:54:05;;;;;;;;;;;;;;;2.20;82.95;98040.53;5040601;28;19970;-76
2022/01/23 01:56:38;;;;;;;;;;;;;;;2.18;83.08;98043.25;5062558;28;19963;-75
2022/01/23 02:09:44;;;;;;;;;;;;;;;2.12;82.89;98033.41;5066078;28;19951;-76
2022/01/23 02:12:39;;;;;;;;;;;;;;;2.12;83.20;98029.97;5063978;28;19987;-76
2022/01/23 02:55:16;;;;;;;;;;;;;;;2.00;83.95;98019.69;5063245;28;19961;-74
2022/01/23 03:00:15;;;;;;;;;;;;;;;2.01;84.02;98005.78;5065062;28;19957;-75
2022/01/23 03:02:47;;;;;;;;;;;;;;;2.02;83.95;98002.28;5062243;28;20021;-78
2022/01/23 03:05:23;;;;;;;;;;;;;;;2.02;83.96;98012.63;5069564;28;19952;-74
2022/01/23 03:07:59;;;;;;;;;;;;;;;2.02;83.93;97999.69;5065399;28;20349;-74
2022/01/23 03:10:29;;;;;;;;;;;;;;;2.02;83.88;98001.47;5069109;28;19963;-75
2022/01/23 03:31:33;;;;;;;;;;;;;;;2.05;84.30;98021.91;5068928;28;20017;-75
2022/01/23 03:33:59;;;;;;;;;;;;;;;2.06;84.27;98025.28;5071431;28;19956;-74
2022/01/23 03:36:25;;;;;;;;;;;;;;;2.06;84.28;98023.56;5067908;28;19956;-75
2022/01/23 03:38:51;;;;;;;;;;;;;;;2.06;84.34;98025.28;5066670;28;19953;-75
2022/01/23 03:41:17;;;;;;;;;;;;;;;2.07;84.48;98030.34;5067779;28;19963;-74
2022/01/23 03:43:43;;;;;;;;;;;;;;;2.06;84.48;98030.47;5062058;28;19954;-75
2022/01/23 03:51:12;;;;;;;;;;;;;;;2.08;84.81;98034.59;5067065;28;20339;-75
2022/01/23 03:53:38;;;;;;;;;;;;;;;2.09;84.89;98035.41;5062311;28;19963;-75
2022/01/23 03:56:05;;;;;;;;;;;;;;;2.10;85.02;98045.66;5043317;28;20154;-76
2022/01/23 03:58:31;;;;;;;;;;;;;;;2.09;85.28;98041.41;5070123;28;19965;-76
2022/01/23 04:00:57;;;;;;;;;;;;;;;2.11;85.23;98038.69;5064183;28;19964;-76
2022/01/23 04:03:23;;;;;;;;;;;;;;;2.11;85.38;98036.94;5059738;28;20304;-75
2022/01/23 04:05:50;;;;;;;;;;;;;;;2.13;85.62;98039.41;5065753;28;19979;-75
2022/01/23 04:08:17;;;;;;;;;;;;;;;2.13;85.50;98041.97;5064250;28;19968;-75
2022/01/23 04:10:43;;;;;;;;;;;;;;;2.13;85.73;98039.41;5063527;28;19959;-76
2022/01/23 04:16:04;;;;;;;;;;;;;;;2.11;85.55;98044.69;5063906;28;19968;-75
2022/01/23 04:45:34;;;;;;;;;;;;;;;2.02;85.83;98042.84;5065451;28;19953;-75
2022/01/23 05:04:20;;;;;;;;;;;;;;;1.97;86.03;98050.16;5065775;28;20329;-74
2022/01/23 05:07:07;;;;;;;;;;;;;;;1.94;86.14;98050.41;5069399;28;20331;-75
2022/01/23 05:09:33;;;;;;;;;;;;;;;1.94;86.22;98042.66;5064710;28;19952;-75
2022/01/23 05:12:03;;;;;;;;;;;;;;;1.91;86.31;98042.88;5062120;28;20009;-76
2022/01/23 05:14:33;;;;;;;;;;;;;;;1.88;86.22;98048.31;5062972;28;19961;-75
2022/01/23 05:17:00;;;;;;;;;;;;;;;1.80;86.73;98049.75;5070415;28;19951;-74
2022/01/23 05:19:26;;;;;;;;;;;;;;;1.75;87.14;98043.31;5064460;28;19966;-76
2022/01/23 05:24:26;;;;;;;;;;;;;;;1.74;87.21;98044.25;5062573;28;19969;-75
2022/01/23 05:26:57;;;;;;;;;;;;;;;1.72;86.80;98041.81;5063615;28;19963;-75
2022/01/23 05:29:23;;;;;;;;;;;;;;;1.73;86.94;98043.44;5062856;28;20021;-75
2022/01/23 05:31:50;;;;;;;;;;;;;;;1.76;87.26;98042.34;5054183;28;20040;-75
2022/01/23 05:34:16;;;;;;;;;;;;;;;1.76;86.98;98050.13;5058127;28;19958;-75
2022/01/23 05:36:43;;;;;;;;;;;;;;;1.73;87.10;98051.19;5062378;28;19964;-75
2022/01/23 05:39:09;;;;;;;;;;;;;;;1.73;87.21;98061.53;5060107;28;20402;-74
2022/01/23 05:41:35;;;;;;;;;;;;;;;1.75;87.29;98064.81;5063612;28;19966;-75
2022/01/23 05:44:02;;;;;;;;;;;;;;;1.77;87.25;98065.53;5059228;28;19997;-74
2022/01/23 05:46:28;;;;;;;;;;;;;;;1.79;87.20;98073.16;5067574;28;19957;-74
2022/01/23 05:48:53;;;;;;;;;;;;;;;1.82;87.16;98081.47;5060958;28;20328;-75
2022/01/23 05:51:19;;;;;;;;;;;;;;;1.81;86.96;98071.28;5060577;28;20002;-75
2022/01/23 05:53:47;;;;;;;;;;;;;;;1.84;87.04;98078.78;5067750;28;20373;-75
2022/01/23 05:56:13;;;;;;;;;;;;;;;1.86;86.82;98068.31;5063817;28;20424;-74
2022/01/23 05:58:38;;;;;;;;;;;;;;;1.87;86.72;98063.03;5064162;28;19968;-76
2022/01/23 06:01:05;;;;;;;;;;;;;;;1.89;86.80;98060.31;5061085;28;19957;-74
2022/01/23 06:03:31;;;;;;;;;;;;;;;1.90;86.77;98060.19;5059019;28;19957;-74
2022/01/23 06:05:57;;;;;;;;;;;;;;;1.90;86.57;98062.78;5063902;28;19955;-74
2022/01/23 06:08:24;;;;;;;;;;;;;;;1.90;86.39;98061.97;5065887;28;20501;-74
2022/01/23 06:10:55;;;;;;;;;;;;;;;1.89;86.67;98055.13;5067205;28;19951;-76
2022/01/23 06:13:22;;;;;;;;;;;;;;;1.89;86.54;98060.31;5052889;28;19963;-74
2022/01/23 06:15:48;;;;;;;;;;;;;;;1.84;86.61;98076.19;5067003;28;19962;-75
2022/01/23 06:18:14;;;;;;;;;;;;;;;1.77;86.32;98069.88;5062378;28;20479;-75
2022/01/23 06:20:39;;;;;;;;;;;;;;;1.72;86.82;98074.56;5070200;28;20026;-75
2022/01/23 06:23:05;;;;;;;;;;;;;;;1.71;86.92;98080.72;5064625;28;19992;-75
2022/01/23 06:25:36;;;;;;;;;;;;;;;1.72;86.92;98072.84;5060293;28;19999;-76
2022/01/23 06:28:04;;;;;;;;;;;;;;;1.74;86.63;98075.28;5047021;28;19973;-76
2022/01/23 06:30:30;;;;;;;;;;;;;;;1.71;86.78;98084.09;5071497;28;20306;-75
2022/01/23 06:32:55;;;;;;;;;;;;;;;1.72;86.71;98090.94;5049597;28;19961;-75
2022/01/23 06:35:21;;;;;;;;;;;;;;;1.72;86.94;98092.69;5061049;28;19950;-75
2022/01/23 06:37:47;;;;;;;;;;;;;;;1.64;86.79;98090.72;5073287;28;20378;-75
2022/01/23 06:40:13;;;;;;;;;;;;;;;1.59;86.85;98091.06;5067260;28;20363;-75
2022/01/23 06:42:39;;;;;;;;;;;;;;;1.60;87.11;98090.13;5064161;28;19958;-75
2022/01/23 06:45:05;;;;;;;;;;;;;;;1.63;87.41;98096.81;5066231;28;19996;-75
2022/01/23 06:47:31;;;;;;;;;;;;;;;1.68;87.28;98099.03;5049819;28;19952;-75
2022/01/23 06:49:57;;;;;;;;;;;;;;;1.66;87.49;98101.78;5054746;28;19956;-76
2022/01/23 06:52:24;;;;;;;;;;;;;;;1.64;87.19;98103.66;5065749;28;19973;-76
2022/01/23 06:54:49;;;;;;;;;;;;;;;1.62;87.21;98097.78;5064125;28;19976;-75
2022/01/23 06:57:15;;;;;;;;;;;;;;;1.63;87.18;98099.41;5064360;28;20443;-75
2022/01/23 06:59:41;;;;;;;;;;;;;;;1.66;87.23;98114.69;5051563;28;19960;-75
2022/01/23 07:02:08;;;;;;;;;;;;;;;1.66;87.06;98119.88;5069434;28;19965;-75
2022/01/23 07:04:33;;;;;;;;;;;;;;;1.67;87.32;98115.50;5061334;28;20466;-75
2022/01/23 07:06:59;;;;;;;;;;;;;;;1.69;87.21;98114.44;5066515;28;19958;-75
2022/01/23 07:09:25;;;;;;;;;;;;;;;1.70;86.96;98118.69;5071145;28;20011;-75
2022/01/23 07:11:51;;;;;;;;;;;;;;;1.72;86.85;98121.13;5047660;28;19957;-75
2022/01/23 07:14:17;;;;;;;;;;;;;;;1.74;86.48;98117.50;5063020;28;19950;-75
2022/01/23 07:16:43;;;;;;;;;;;;;;;1.77;86.47;98116.44;5063246;28;20001;-74
2022/01/23 07:19:09;;;;;;;;;;;;;;;1.77;86.57;98122.44;5067427;28;20018;-75
2022/01/23 07:21:35;;;;;;;;;;;;;;;1.76;86.39;98125.94;5068824;28;19970;-74
2022/01/23 07:24:01;;;;;;;;;;;;;;;1.74;86.57;98127.00;5064635;28;19978;-75
2022/01/23 07:26:28;;;;;;;;;;;;;;;1.74;86.71;98127.84;5066752;28;19961;-75
2022/01/23 07:28:56;;;;;;;;;;;;;;;1.73;86.68;98131.38;5062249;28;19965;-75
2022/01/23 07:34:07;;;;;;;;;;;;;;;1.71;86.91;98125.50;5066375;28;19957;-75
2022/01/23 07:36:33;;;;;;;;;;;;;;;1.70;86.40;98141.13;5058653;28;19955;-75
2022/01/23 07:38:59;;;;;;;;;;;;;;;1.65;86.86;98140.69;5063902;28;19956;-75
2022/01/23 07:41:25;;;;;;;;;;;;;;;1.65;87.23;98138.91;5060029;28;19948;-75
2022/01/23 07:43:51;;;;;;;;;;;;;;;1.68;87.19;98143.00;5064550;28;20115;-75
2022/01/23 07:46:17;;;;;;;;;;;;;;;1.72;87.21;98150.44;5063863;28;19965;-75
2022/01/23 07:48:43;;;;;;;;;;;;;;;1.75;87.06;98141.59;5071108;28;19974;-74
2022/01/23 07:51:08;;;;;;;;;;;;;;;1.80;87.10;98142.88;5046526;28;20381;-76
2022/01/23 07:53:34;;;;;;;;;;;;;;;1.83;86.95;98152.19;5064984;28;20074;-75
2022/01/23 07:56:02;;;;;;;;;;;;;;;1.85;86.55;98145.13;5060279;28;20052;-75
2022/01/23 07:58:28;;;;;;;;;;;;;;;1.88;86.77;98144.03;5065542;28;19957;-75
2022/01/23 08:00:55;;;;;;;;;;;;;;;1.91;86.73;98148.97;5048679;28;19965;-75
2022/01/23 08:03:20;;;;;;;;;;;;;;;1.93;86.83;98140.16;5070877;28;19959;-75
2022/01/23 08:05:46;;;;;;;;;;;;;;;1.95;86.45;98145.19;5059014;28;19988;-74
2022/01/23 08:08:12;;;;;;;;;;;;;;;1.94;86.33;98149.56;5065361;28;19970;-76
2022/01/23 08:10:38;;;;;;;;;;;;;;;1.92;85.56;98156.63;5065770;28;19953;-75
2022/01/23 08:13:05;;;;;;;;;;;;;;;1.89;86.16;98163.78;5066115;28;19954;-75
2022/01/23 08:15:31;;;;;;;;;;;;;;;1.87;86.05;98170.84;5067215;28;20304;-75
2022/01/23 08:18:01;;;;;;;;;;;;;;;1.86;86.22;98172.63;5060777;28;19949;-75
2022/01/23 08:20:27;;;;;;;;;;;;;;;1.86;86.29;98169.22;5074430;28;19967;-75
2022/01/23 08:22:53;;;;;;;;;;;;;;;1.90;86.81;98175.78;5059513;28;19952;-75
2022/01/23 08:25:19;;;;;;;;;;;;;;;1.93;86.37;98180.72;5064446;28;19963;-75
2022/01/23 08:27:45;;;;;;;;;;;;;;;1.95;86.02;98176.25;5059402;28;19955;-75
2022/01/23 08:30:13;;;;;;;;;;;;;;;1.97;86.04;98179.53;5068089;28;20397;-75
2022/01/23 08:32:39;;;;;;;;;;;;;;;2.00;85.98;98174.13;5066127;28;19983;-74
2022/01/23 08:35:05;;;;;;;;;;;;;;;2.00;86.00;98181.91;5071537;28;19964;-75
2022/01/23 08:37:32;;;;;;;;;;;;;;;2.00;85.99;98180.13;5061648;28;19960;-75
2022/01/23 08:39:58;;;;;;;;;;;;;;;2.02;85.85;98183.41;5061628;28;19954;-75
2022/01/23 08:42:24;;;;;;;;;;;;;;;2.04;85.96;98188.47;5071099;28;20318;-77
2022/01/23 08:44:50;;;;;;;;;;;;;;;2.05;86.11;98174.56;5059251;28;19960;-77
2022/01/23 08:47:17;;;;;;;;;;;;;;;2.08;85.90;98169.19;5059499;28;19968;-75
2022/01/23 08:49:46;;;;;;;;;;;;;;;2.12;86.00;98174.91;5063388;28;19977;-75
2022/01/23 08:52:19;;;;;;;;;;;;;;;2.14;86.34;98181.63;5062650;28;19977;-76
2022/01/23 08:54:45;;;;;;;;;;;;;;;2.18;86.23;98182.19;5066737;28;19966;-76
2022/01/23 08:57:12;;;;;;;;;;;;;;;2.19;86.07;98181.25;5063878;28;19959;-76
2022/01/23 08:59:38;;;;;;;;;;;;;;;2.23;85.97;98187.84;5065614;28;19956;-76
2022/01/23 09:02:04;;;;;;;;;;;;;;;2.23;86.10;98173.13;5065096;28;19956;-76
2022/01/23 09:04:30;;;;;;;;;;;;;;;2.26;85.95;98179.81;5069834;28;19955;-77
2022/01/23 09:06:56;;;;;;;;;;;;;;;2.28;85.97;98172.75;5067906;28;19957;-77
2022/01/23 09:09:23;;;;;;;;;;;;;;;2.29;85.80;98163.22;5057297;28;20325;-78
2022/01/23 09:12:20;;;;;;;;;;;;;;;2.30;85.84;98170.03;5073707;28;19956;-77
2022/01/23 09:14:46;;;;;;;;;;;;;;;2.34;85.47;98174.03;5058257;28;19950;-77
2022/01/23 09:17:12;;;;;;;;;;;;;;;2.36;85.46;98172.16;5062588;28;20010;-79
2022/01/23 09:19:39;;;;;;;;;;;;;;;2.37;85.29;98166.00;5071873;28;19956;-77
2022/01/23 09:22:05;;;;;;;;;;;;;;;2.39;85.49;98161.53;5063173;28;19967;-77
2022/01/23 09:24:31;;;;;;;;;;;;;;;2.39;85.19;98157.19;5064527;28;20010;-77
2022/01/23 09:27:04;;;;;;;;;;;;;;;2.41;85.31;98154.47;5067255;28;19955;-77
2022/01/23 09:29:36;;;;;;;;;;;;;;;2.40;85.16;98158.00;5060341;28;19963;-77
2022/01/23 09:32:06;;;;;;;;;;;;;;;2.39;85.10;98156.34;5063569;28;19960;-77
2022/01/23 09:34:33;;;;;;;;;;;;;;;2.38;85.45;98155.53;5064009;28;19961;-78
2022/01/23 09:37:02;;;;;;;;;;;;;;;2.35;84.79;98155.78;5050287;28;19956;-78
2022/01/23 09:39:28;;;;;;;;;;;;;;;2.30;84.82;98159.69;5060267;28;20424;-77
2022/01/23 09:41:59;;;;;;;;;;;;;;;2.27;85.49;98157.34;5060154;28;19959;-80
2022/01/23 09:44:27;;;;;;;;;;;;;;;2.18;86.53;98164.91;5060100;28;19955;-77
2022/01/23 09:46:55;;;;;;;;;;;;;;;2.14;86.48;98160.06;5062977;28;19952;-77
2022/01/23 09:49:21;;;;;;;;;;;;;;;2.15;87.14;98166.91;5065605;28;19971;-77
2022/01/23 09:51:49;;;;;;;;;;;;;;;2.19;87.54;98163.94;5062093;28;20425;-79
2022/01/23 09:54:15;;;;;;;;;;;;;;;2.25;87.18;98165.25;5057919;28;19956;-77
2022/01/23 09:56:43;;;;;;;;;;;;;;;2.35;87.26;98160.97;5061015;28;19967;-77
2022/01/23 09:59:13;;;;;;;;;;;;;;;2.44;86.95;98159.41;5066562;28;19960;-78
2022/01/23 10:01:43;;;;;;;;;;;;;;;2.51;86.70;98155.34;5070341;28;19962;-78
2022/01/23 10:04:09;;;;;;;;;;;;;;;2.60;86.36;98154.63;5066109;28;20319;-75
2022/01/23 10:06:36;;;;;;;;;;;;;;;2.67;86.72;98157.53;5063630;28;19971;-75
2022/01/23 10:09:06;;;;;;;;;;;;;;;2.76;86.66;98159.34;5067224;28;20446;-76
2022/01/23 10:11:36;;;;;;;;;;;;;;;2.85;86.10;98150.00;5061787;28;19956;-75
2022/01/23 10:14:02;;;;;;;;;;;;;;;2.91;85.64;98149.50;5075871;28;19964;-76
2022/01/23 10:16:28;;;;;;;;;;;;;;;2.97;85.50;98149.00;5069016;28;19964;-75
2022/01/23 10:18:56;;;;;;;;;;;;;;;3.01;85.86;98150.38;5042837;28;19951;-76
2022/01/23 10:21:22;;;;;;;;;;;;;;;3.10;85.80;98161.75;5074415;28;19960;-76
2022/01/23 10:23:49;;;;;;;;;;;;;;;3.23;85.40;98145.97;5067185;28;20518;-76
2022/01/23 10:26:35;;;;;;;;;;;;;;;3.34;84.41;98152.84;5062064;28;19955;-78
2022/01/23 10:29:21;;;;;;;;;;;;;;;3.38;84.02;98152.47;5065548;28;19970;-76
2022/01/23 10:32:06;;;;;;;;;;;;;;;3.44;84.03;98153.72;5073868;28;19956;-75
2022/01/23 10:34:50;;;;;;;;;;;;;;;3.48;83.01;98154.28;5068131;28;19949;-75
2022/01/23 10:37:28;;;;;;;;;;;;;;;3.48;82.77;98156.88;5061016;28;19966;-76
2022/01/23 10:39:55;;;;;;;;;;;;;;;3.37;82.42;98150.81;5065477;28;20341;-78
2022/01/23 10:48:13;;;;;;;;;;;;;;;3.36;82.18;98144.00;5071036;28;19955;-75
2022/01/23 10:50:39;;;;;;;;;;;;;;;3.38;82.49;98144.69;5067984;28;20378;-75
2022/01/23 10:53:05;;;;;;;;;;;;;;;3.45;82.90;98143.22;5065431;28;19987;-75
2022/01/23 10:55:32;;;;;;;;;;;;;;;3.54;83.10;98141.59;5064362;28;19962;-77
2022/01/23 10:58:01;;;;;;;;;;;;;;;3.66;83.07;98139.75;5064110;28;19978;-76
2022/01/23 11:00:32;;;;;;;;;;;;;;;3.76;82.58;98134.56;5066924;28;19978;-75
2022/01/23 11:03:00;;;;;;;;;;;;;;;3.80;82.53;98144.56;5065857;28;19963;-74
2022/01/23 11:05:36;;;;;;;;;;;;;;;3.85;82.28;98139.78;5056458;28;19959;-79
2022/01/23 11:08:17;;;;;;;;;;;;;;;3.88;81.80;98136.09;5058189;28;19951;-75
2022/01/23 11:10:52;;;;;;;;;;;;;;;3.89;81.59;98144.72;5063465;28;19955;-78
2022/01/23 11:19:15;;;;;;;;;;;;;;;3.93;82.05;98130.53;5071788;28;19962;-78
2022/01/23 11:21:42;;;;;;;;;;;;;;;3.92;81.59;98126.28;5062349;28;20017;-77
2022/01/23 11:24:08;;;;;;;;;;;;;;;3.97;81.32;98129.28;5062971;28;19956;-78
2022/01/23 11:26:33;;;;;;;;;;;;;;;4.01;80.94;98131.50;5064767;28;19967;-77
2022/01/23 11:29:07;;;;;;;;;;;;;;;4.01;81.36;98130.63;5065563;28;20380;-77
2022/01/23 11:31:33;;;;;;;;;;;;;;;3.98;81.42;98134.34;5068138;28;19959;-78
2022/01/23 11:34:01;;;;;;;;;;;;;;;3.96;81.23;98132.84;5066027;28;19955;-77
2022/01/23 11:36:27;;;;;;;;;;;;;;;3.93;81.70;98133.94;5064838;28;19948;-78
2022/01/23 11:38:59;;;;;;;;;;;;;;;3.96;81.29;98131.06;5060224;28;19998;-77
2022/01/23 11:55:31;;;;;;;;;;;;;;;4.00;81.34;98097.88;5065984;28;19962;-77
2022/01/23 11:57:57;;;;;;;;;;;;;;;4.01;81.09;98107.28;5064760;28;20005;-77
2022/01/23 12:00:24;;;;;;;;;;;;;;;3.99;80.62;98099.66;5071782;28;19966;-77
2022/01/23 12:03:17;;;;;;;;;;;;;;;4.01;80.42;98097.75;5063967;28;19965;-77
2022/01/23 12:05:45;;;;;;;;;;;;;;;4.04;79.84;98101.84;5061431;28;19954;-78
2022/01/23 12:08:31;;;;;;;;;;;;;;;3.96;79.27;98094.72;5055455;28;19955;-77
2022/01/23 12:11:25;;;;;;;;;;;;;;;3.88;79.50;98091.97;5064846;28;20285;-77
2022/01/23 12:16:21;;;;;;;;;;;;;;;3.87;79.30;98095.53;5069857;28;19955;-77
2022/01/23 12:16:57;;;;;;;;;;;;;;;3.92;75.55;98089.94;5073563;28;19962;-76
2022/01/23 12:19:24;;;;;;;;;;;;;;;3.88;72.06;98066.00;5061500;28;20414;-77
2022/01/23 12:21:53;;;;;;;;;;;;;;;3.87;73.14;98066.97;5063592;28;19967;-77
2022/01/23 12:24:20;;;;;;;;;;;;;;;3.93;76.37;98091.59;5065254;28;19958;-77
2022/01/23 12:26:47;;;;;;;;;;;;;;;3.98;77.99;98079.81;5053349;28;19953;-77
2022/01/23 12:29:14;;;;;;;;;;;;;;;3.98;77.11;98082.41;5060134;28;19974;-77
2022/01/23 12:31:41;;;;;;;;;;;;;;;3.99;76.42;98078.03;5057627;28;19953;-77
2022/01/23 12:34:07;;;;;;;;;;;;;;;3.99;77.90;98075.44;5058060;28;20315;-76
2022/01/23 12:36:34;;;;;;;;;;;;;;;4.00;78.42;98077.09;5049240;28;19951;-76
2022/01/23 12:39:06;;;;;;;;;;;;;;;4.03;78.84;98074.22;5065646;28;19965;-76
2022/01/23 12:41:32;;;;;;;;;;;;;;;4.04;77.95;98071.50;5063293;28;19955;-77
2022/01/23 12:44:09;;;;;;;;;;;;;;;4.06;78.54;98063.56;5072464;28;19962;-79
2022/01/23 12:46:37;;;;;;;;;;;;;;;4.14;78.13;98061.13;5051606;28;20034;-78
2022/01/23 12:49:20;;;;;;;;;;;;;;;4.19;76.30;98060.69;5051950;28;19979;-78
2022/01/23 12:51:47;;;;;;;;;;;;;;;4.22;77.62;98060.41;5057888;28;20305;-77
2022/01/23 12:54:18;;;;;;;;;;;;;;;4.24;77.12;98061.94;5060679;28;19968;-78
2022/01/23 12:56:46;;;;;;;;;;;;;;;4.25;77.55;98058.38;5074399;28;19960;-77
2022/01/23 12:59:20;;;;;;;;;;;;;;;4.27;76.77;98050.44;5071022;28;20446;-78
2022/01/23 13:01:47;;;;;;;;;;;;;;;4.27;71.88;98030.47;5066176;28;19951;-78
2022/01/23 13:04:15;;;;;;;;;;;;;;;4.24;72.53;98050.69;5054993;28;19966;-77
2022/01/23 13:06:50;;;;;;;;;;;;;;;4.20;73.43;98051.94;5068022;28;19974;-78
2022/01/23 13:09:37;;;;;;;;;;;;;;;4.13;73.50;98051.66;5063961;28;19963;-78
2022/01/23 13:17:38;;;;;;;;;;;;;;;4.05;72.94;98047.19;5048633;28;19959;-78
2022/01/23 13:30:52;;;;;;;;;;;;;;;4.00;71.72;98044.16;5060923;28;20020;-75
2022/01/23 13:33:23;;;;;;;;;;;;;;;4.01;72.17;98048.41;5065481;28;19957;-75
2022/01/23 13:35:52;;;;;;;;;;;;;;;3.95;70.30;98038.56;5066388;28;19961;-75
2022/01/23 13:38:19;;;;;;;;;;;;;;;3.94;73.03;98052.50;5065151;28;19960;-76
2022/01/23 13:40:46;;;;;;;;;;;;;;;3.93;71.19;98035.28;5064965;28;19956;-75
2022/01/23 13:59:26;;;;;;;;;;;;;;;3.78;73.39;98034.88;5065168;28;19961;-78
2022/01/23 14:02:07;;;;;;;;;;;;;;;3.75;73.49;98029.13;5063487;28;20407;-78
2022/01/23 14:04:39;;;;;;;;;;;;;;;3.76;74.46;98033.34;5063672;28;20335;-77
2022/01/23 14:07:05;;;;;;;;;;;;;;;3.73;73.32;98025.84;5059077;28;19957;-77
2022/01/23 14:09:43;;;;;;;;;;;;;;;3.74;74.44;98025.72;5063697;28;19972;-76
2022/01/23 14:12:10;;;;;;;;;;;;;;;3.74;73.38;98024.88;5063251;28;19964;-74
2022/01/23 14:14:47;;;;;;;;;;;;;;;3.72;74.07;98026.81;5064090;28;19967;-75
2022/01/23 14:17:14;;;;;;;;;;;;;;;3.68;75.14;98035.84;5060948;28;19950;-75
2022/01/23 14:19:40;;;;;;;;;;;;;;;3.64;74.54;98027.50;5062496;28;19969;-75
2022/01/23 14:22:06;;;;;;;;;;;;;;;3.61;75.54;98035.53;5058658;28;20336;-77
2022/01/23 14:24:34;;;;;;;;;;;;;;;3.60;75.89;98032.13;5060980;28;19968;-77
2022/01/23 14:27:02;;;;;;;;;;;;;;;3.59;76.44;98035.69;5073324;28;19966;-75
2022/01/23 14:29:29;;;;;;;;;;;;;;;3.62;75.96;98029.41;5061196;28;19974;-75
2022/01/23 14:32:13;;;;;;;;;;;;;;;3.75;85.21;98032.53;5062744;28;19963;-80
2022/01/23 14:34:41;;;;;;;;;;;;;;;4.04;73.70;98016.97;5053521;28;20333;-77
2022/01/23 14:37:07;;;;;;;;;;;;;;;4.03;74.06;98017.09;5064072;28;20419;-76
2022/01/23 14:39:34;;;;;;;;;;;;;;;3.88;71.52;98008.91;5063111;28;20020;-76
2022/01/23 14:42:29;;;;;;;;;;;;;;;3.77;74.59;98024.63;5065690;28;19963;-77
2022/01/23 14:44:55;;;;;;;;;;;;;;;3.59;73.55;98025.31;5056701;28;19957;-76
2022/01/23 14:47:21;;;;;;;;;;;;;;;3.55;74.38;98026.53;5065339;28;20400;-77
2022/01/23 14:49:47;;;;;;;;;;;;;;;3.52;74.15;98024.19;5074818;28;19963;-76
2022/01/23 14:52:14;;;;;;;;;;;;;;;3.52;73.85;98031.97;5069782;28;20341;-77
2022/01/23 14:54:40;;;;;;;;;;;;;;;3.51;74.30;98032.09;5063566;28;19963;-76
2022/01/23 14:57:08;;;;;;;;;;;;;;;3.50;73.93;98027.88;5066023;28;19952;-76
2022/01/23 14:59:35;;;;;;;;;;;;;;;3.46;70.98;98011.75;5065465;28;19969;-76
2022/01/23 15:02:01;;;;;;;;;;;;;;;3.40;72.22;98031.28;5069380;28;20333;-77
2022/01/23 15:04:28;;;;;;;;;;;;;;;3.33;72.72;98034.53;5059953;28;19979;-76
2022/01/23 15:06:54;;;;;;;;;;;;;;;3.27;73.04;98038.47;5067195;28;19957;-75
2022/01/23 15:09:21;;;;;;;;;;;;;;;3.23;72.96;98035.34;5074541;28;19972;-76
2022/01/23 15:11:48;;;;;;;;;;;;;;;3.24;72.18;98030.97;5061868;28;19956;-76
2022/01/23 15:14:14;;;;;;;;;;;;;;;3.23;73.11;98042.25;5076172;28;19970;-76
2022/01/23 15:16:40;;;;;;;;;;;;;;;3.24;73.60;98047.31;5061549;28;19970;-75
2022/01/23 15:19:07;;;;;;;;;;;;;;;3.27;73.44;98041.06;5065864;28;19965;-74
2022/01/23 15:21:33;;;;;;;;;;;;;;;3.29;73.29;98040.94;5067806;28;19968;-76
2022/01/23 15:24:00;;;;;;;;;;;;;;;3.25;72.31;98041.22;5067208;28;19961;-79
2022/01/23 15:26:28;;;;;;;;;;;;;;;3.24;72.47;98036.97;5060093;28;19952;-79
2022/01/23 15:28:54;;;;;;;;;;;;;;;3.25;72.42;98027.41;5066931;28;19973;-78
2022/01/23 15:31:20;;;;;;;;;;;;;;;3.24;72.35;98034.38;5067610;28;19963;-75
2022/01/23 15:33:46;;;;;;;;;;;;;;;3.22;72.47;98036.25;5068244;28;19969;-75
2022/01/23 15:36:12;;;;;;;;;;;;;;;3.20;70.63;98038.16;5062592;28;19953;-75
2022/01/23 15:38:42;;;;;;;;;;;;;;;3.16;69.80;98023.03;5067895;28;20321;-76
2022/01/23 15:41:08;;;;;;;;;;;;;;;3.10;70.31;98033.91;5065338;28;19960;-76
2022/01/23 15:43:34;;;;;;;;;;;;;;;3.04;70.92;98033.50;5068187;28;19961;-77
2022/01/23 15:46:00;;;;;;;;;;;;;;;3.04;72.28;98046.47;5065256;28;19957;-75
2022/01/23 15:48:30;;;;;;;;;;;;;;;2.99;70.38;98027.06;5073225;28;19955;-75
2022/01/23 15:50:59;;;;;;;;;;;;;;;2.97;71.79;98036.72;5063922;28;19981;-75
2022/01/23 15:53:25;;;;;;;;;;;;;;;2.99;72.53;98040.00;5075653;28;19980;-75
2022/01/23 15:55:52;;;;;;;;;;;;;;;3.00;72.40;98044.22;5071396;28;19961;-75
2022/01/23 15:58:18;;;;;;;;;;;;;;;3.03;73.47;98044.81;5065845;28;20294;-75
2022/01/23 16:00:44;;;;;;;;;;;;;;;3.07;73.36;98042.78;5062012;28;19950;-75
2022/01/23 16:03:10;;;;;;;;;;;;;;;3.09;72.71;98045.22;5065957;28;19981;-75
2022/01/23 16:05:36;;;;;;;;;;;;;;;3.08;72.77;98041.81;5066564;28;19992;-75
2022/01/23 16:08:02;;;;;;;;;;;;;;;3.09;72.67;98034.84;5055636;28;20465;-75
2022/01/23 16:10:28;;;;;;;;;;;;;;;3.08;72.34;98044.41;5037611;28;19971;-74
2022/01/23 16:12:54;;;;;;;;;;;;;;;3.03;72.34;98046.59;5055513;28;19956;-75
2022/01/23 16:15:21;;;;;;;;;;;;;;;2.98;71.76;98046.97;5058206;28;19967;-75
2022/01/23 16:17:48;;;;;;;;;;;;;;;2.92;69.25;98036.28;5064476;28;20331;-74
2022/01/23 16:20:15;;;;;;;;;;;;;;;2.84;70.14;98050.72;5049565;28;20335;-74
2022/01/23 16:22:41;;;;;;;;;;;;;;;2.80;71.21;98056.28;5065016;28;19958;-77
2022/01/23 16:25:07;;;;;;;;;;;;;;;2.79;71.97;98060.66;5066880;28;19964;-75
2022/01/23 16:27:33;;;;;;;;;;;;;;;2.82;71.36;98062.97;5056682;28;20400;-75
2022/01/23 16:29:59;;;;;;;;;;;;;;;2.84;71.69;98060.28;5068048;28;20010;-75
2022/01/23 16:32:25;;;;;;;;;;;;;;;2.80;70.17;98046.75;5064332;28;20014;-75